Flight Track Log - Related Links

Times and Time Zones

All times are in EDT time to prevent confusion due to time zone crossing. See the UAL594 flight status page for this flight to view local times or setup timezone preferences in your user account.

Time Position Orientation Groundspeed Altitude Reporting Facility
EDT Latitude Longitude Course Direction KTS MPH feet Rate Location/Type
Wed 09:52:39 AM 42.0000 -87.9500 261° West 171 197 2,000  Level Chicago TRACON
Wed 09:53:33 AM 42.0500 -87.9833 334° Northwest 226 260 4,300 2,644 Climbing Chicago TRACON
Wed 09:55:00 AM 41.9333 -88.3046 270° West  Level FlightAware Approximate
Wed 09:56:00 AM 41.9167 -88.4396 270° West  Level FlightAware Approximate
Wed 09:56:01 AM 42.0783 -88.1936 280° West 258 297 10,900  Level Chicago Center
Wed 09:57:00 AM 41.9039 -88.5762 261° West  Level FlightAware Approximate
Wed 09:57:02 AM 42.0647 -88.3036 261° West 304 350 13,500  Level Chicago Center
Wed 09:58:04 AM 42.0183 -88.4022 238° Southwest 314 361 16,300 2,537 Climbing Chicago Center
Wed 09:59:05 AM 41.9719 -88.5053 239° Southwest 323 372 18,700 2,439 Climbing Chicago Center
Wed 10:00:07 AM 41.9281 -88.6450 247° West 341 392 21,300 2,177 Climbing Chicago Center
Wed 10:01:09 AM 41.9075 -88.7750 258° West 356 410 23,200 1,805 Climbing Chicago Center
Wed 10:02:10 AM 41.8858 -88.9092 258° West 368 423 25,000 1,610 Climbing Chicago Center
Wed 10:03:12 AM 41.8756 -89.0486 264° West 379 436 26,500 1,220 Climbing Chicago Center
Wed 10:04:13 AM 41.8681 -89.1939 266° West 389 448 27,500 1,122 Climbing Chicago Center
Wed 10:05:15 AM 41.8628 -89.3475 267° West 411 473 28,800 1,171 Climbing Chicago Center
Wed 10:06:16 AM 41.8547 -89.5003 266° West 416 479 29,900 1,512 Climbing Chicago Center
Wed 10:07:18 AM 41.8453 -89.6847 266° West 415 478 31,900 1,597 Climbing Chicago Center
Wed 10:08:20 AM 41.8369 -89.8386 266° West 414 476 33,200 1,366 Climbing Chicago Center
Wed 10:09:21 AM 41.8308 -90.0031 267° West 417 480 34,700 1,366 Climbing Chicago Center
Wed 10:10:23 AM 41.8225 -90.1544 266° West 411 473 36,000 634 Climbing Chicago Center
Wed 10:11:24 AM 41.8144 -90.3058 266° West 410 472 36,000  Level Chicago Center
Wed 10:12:26 AM 41.8056 -90.4572 266° West 411 473 36,000  Level Chicago Center
Wed 10:13:28 AM 41.7967 -90.6058 265° West 405 466 36,000  Level Chicago Center
Wed 10:14:29 AM 41.7864 -90.7581 265° West 409 471 36,000  Level Chicago Center
Wed 10:15:31 AM 41.7772 -90.9061 265° West 405 466 36,000  Level Chicago Center
Wed 10:16:32 AM 41.7661 -91.0828 265° West 401 461 36,000  Level Chicago Center
Wed 10:17:34 AM 41.7558 -91.2314 265° West 403 464 36,000  Level Chicago Center
Wed 10:18:36 AM 41.7467 -91.3792 265° West 402 463 36,000  Level Chicago Center
Wed 10:19:37 AM 41.7369 -91.5289 265° West 403 464 36,000  Level Chicago Center
Wed 10:20:39 AM 41.7261 -91.6794 265° West 407 468 36,000  Level Chicago Center
Wed 10:21:41 AM 41.7158 -91.8292 265° West 405 466 36,000  Level Chicago Center
Wed 10:22:42 AM 41.7050 -91.9808 265° West 409 471 36,000  Level Chicago Center
Wed 10:23:44 AM 41.6914 -92.1642 264° West 413 475 36,000  Level Chicago Center
Wed 10:24:45 AM 41.6800 -92.3150 264° West 410 472 36,000  Level Chicago Center
Wed 10:25:47 AM 41.6678 -92.4661 264° West 413 475 36,000  Level Chicago Center
Wed 10:26:49 AM 41.6572 -92.6183 265° West 414 476 36,000  Level Chicago Center
Wed 10:27:30 AM 41.6486 -92.7164 263° West 414 476 36,000  Level Minneapolis Center
Wed 10:28:31 AM 41.6367 -92.8689 264° West 415 478 36,000  Level Minneapolis Center
Wed 10:29:33 AM 41.6214 -93.0508 264° West 415 478 36,000  Level Minneapolis Center
Wed 10:30:34 AM 41.6097 -93.2003 264° West 411 473 36,000 -49 Level Minneapolis Center
Wed 10:31:36 AM 41.5964 -93.3481 263° West 407 468 35,900 -293 Descending Minneapolis Center
Wed 10:32:37 AM 41.5836 -93.4983 264° West 408 470 35,400 -976 Descending Minneapolis Center
Wed 10:33:39 AM 41.5725 -93.6422 264° West 402 463 33,900 -1,597 Descending Minneapolis Center
Wed 10:34:41 AM 41.5597 -93.7992 264° West 421 484 32,100 -927 Descending Minneapolis Center
Wed 10:35:42 AM 41.5403 -93.9956 263° West 443 510 32,000 -49 Descending Minneapolis Center
Wed 10:36:44 AM 41.5258 -94.1531 263° West 436 502 32,000  Level Minneapolis Center
Wed 10:37:46 AM 41.5089 -94.3111 262° West 435 501 32,000  Level Minneapolis Center
Wed 10:38:47 AM 41.4931 -94.4700 262° West 433 498 32,000  Level Minneapolis Center
Wed 10:39:49 AM 41.4806 -94.6300 264° West 433 498 32,000  Level Minneapolis Center
Wed 10:40:50 AM 41.4667 -94.7914 264° West 436 502 32,000  Level Minneapolis Center
Wed 10:41:52 AM 41.4467 -94.9819 262° West 435 501 32,000  Level Minneapolis Center
Wed 10:42:54 AM 41.4308 -95.1397 262° West 431 496 32,000  Level Minneapolis Center
Wed 10:43:55 AM 41.4144 -95.2969 262° West 430 495 32,000  Level Minneapolis Center
Wed 10:45:00 AM 41.3955 -95.4525 261° West  Level FlightAware Approximate
Wed 10:45:59 AM 41.3822 -95.6092 261° West 427 491 32,000  Level Minneapolis Center
Wed 10:47:00 AM 41.3661 -95.7794 263° West 430 495 32,000  Level Minneapolis Center
Wed 10:48:02 AM 41.3497 -95.9364 262° West 429 494 32,000  Level Minneapolis Center
Wed 10:49:03 AM 41.3347 -96.0628 261° West 430 495 32,000  Level Minneapolis Center
Wed 10:50:05 AM 41.3139 -96.2525 262° West 431 496 32,000  Level Minneapolis Center
Wed 10:51:07 AM 41.2961 -96.4122 262° West 430 495 32,000  Level Minneapolis Center
Wed 10:52:08 AM 41.2772 -96.5700 261° West 431 496 32,000  Level Minneapolis Center
Wed 10:53:10 AM 41.2594 -96.7275 262° West 431 496 32,000  Level Minneapolis Center
Wed 10:54:12 AM 41.2369 -96.9167 261° West 432 497 32,000  Level Minneapolis Center
Wed 10:55:13 AM 41.2186 -97.0742 261° West 432 497 32,000  Level Minneapolis Center
Wed 10:56:15 AM 41.2003 -97.2319 261° West 433 498 32,000  Level Minneapolis Center
Wed 10:57:17 AM 41.1814 -97.3900 261° West 434 499 32,000  Level Minneapolis Center
Wed 10:58:18 AM 41.1622 -97.5481 261° West 434 499 32,000  Level Minneapolis Center
Wed 10:59:20 AM 41.1431 -97.7075 261° West 435 501 32,000  Level Minneapolis Center
Wed 11:00:22 AM 41.1228 -97.8642 260° West 434 499 32,000  Level Minneapolis Center
Wed 11:01:23 AM 41.0989 -98.0519 260° West 432 497 32,000  Level Minneapolis Center
Wed 11:02:25 AM 41.0794 -98.2081 261° West 430 495 32,000  Level Minneapolis Center
Wed 11:03:26 AM 41.0597 -98.3642 261° West 429 494 32,000  Level Minneapolis Center
Wed 11:04:28 AM 41.0433 -98.5186 262° West 428 493 32,000  Level Minneapolis Center
Wed 11:05:30 AM 41.0272 -98.6753 262° West 430 495 32,000  Level Minneapolis Center
Wed 11:06:31 AM 41.0081 -98.8308 261° West 430 495 32,000  Level Minneapolis Center
Wed 11:07:33 AM 40.9908 -98.9881 262° West 431 496 32,000  Level Minneapolis Center
Wed 11:08:28 AM 40.9750 -99.1281 262° West 431 496 32,000  Level Denver Center
Wed 11:09:30 AM 40.9522 -99.3169 261° West 431 496 32,000  Level Denver Center
Wed 11:10:32 AM 40.9339 -99.4747 261° West 432 497 32,000  Level Denver Center
Wed 11:11:33 AM 40.9189 -99.6008 261° West 433 498 32,000  Level Denver Center
Wed 11:12:36 AM 40.8961 -99.7903 261° West 435 501 32,000  Level Denver Center
Wed 11:13:37 AM 40.8753 -99.9600 261° West 434 499 32,000  Level Denver Center
Wed 11:14:39 AM 40.8561 -100.1119 261° West 437 503 32,000  Level Denver Center
Wed 11:15:41 AM 40.8333 -100.2881 260° West 436 502 32,000  Level Denver Center
Wed 11:16:43 AM 40.8150 -100.4392 261° West 435 501 32,000  Level Denver Center
Wed 11:17:45 AM 40.7961 -100.5908 261° West 435 501 32,000  Level Denver Center
Wed 11:18:47 AM 40.7692 -100.7650 259° West 430 495 32,000  Level Denver Center
Wed 11:19:49 AM 40.7903 -100.9269 280° West 461 531 32,000  Level Denver Center
Wed 11:20:51 AM 40.8661 -101.0714 305° West 494 568 32,000  Level Denver Center
Wed 11:21:53 AM 40.8811 -101.2531 276° West 446 513 32,000  Level Denver Center
Wed 11:22:55 AM 40.8472 -101.3958 253° West 426 490 32,000  Level Denver Center
Wed 11:23:57 AM 40.8053 -101.5608 251° West 426 490 32,000  Level Denver Center
Wed 11:25:11 AM 40.7706 -101.7025 252° West 425 489 32,000  Level Denver Center
Wed 11:26:13 AM 40.7236 -101.8864 251° West 415 478 32,000  Level Denver Center
Wed 11:27:15 AM 40.6886 -102.0228 251° West 410 472 32,000  Level Denver Center
Wed 11:28:17 AM 40.6458 -102.1844 251° West 420 483 32,000  Level Denver Center
Wed 11:29:19 AM 40.6089 -102.3244 251° West 422 486 32,000  Level Denver Center
Wed 11:30:21 AM 40.5669 -102.4892 252° West 426 490 32,000  Level Denver Center
Wed 11:31:23 AM 40.5303 -102.6283 251° West 422 486 32,000  Level Denver Center
Wed 11:32:25 AM 40.4869 -102.7933 251° West 426 490 32,000 -242 Level Denver Center
Wed 11:33:27 AM 40.4478 -102.9403 251° West 424 488 31,500 -1,306 Descending Denver Center
Wed 11:34:29 AM 40.4081 -103.0867 250° West 424 488 29,300 -2,146 Descending Denver Center
Wed 11:35:30 AM 40.3706 -103.2314 251° West 419 482 27,100 -2,049 Descending Denver Center
Wed 11:36:32 AM 40.3311 -103.3700 250° West 405 466 25,100 -1,790 Descending Denver Center
Wed 11:37:34 AM 40.3014 -103.4833 251° West 396 456 23,400 -1,935 Descending Denver Center
Wed 11:38:36 AM 40.2597 -103.6350 250° West 381 438 21,100 -2,129 Descending Denver Center
Wed 11:39:38 AM 40.2228 -103.7719 251° West 359 413 19,000 -1,452 Descending Denver Center
Wed 11:40:40 AM 40.2017 -103.8836 256° West 308 354 18,100 -1,220 Descending Denver Center
Wed 11:41:41 AM 40.2139 -104.0022 278° West 305 351 16,500 -1,659 Descending Denver Center
Wed 11:42:43 AM 40.2236 -104.1097 277° West 300 345 14,700 -1,694 Descending Denver Center
Wed 11:43:45 AM 40.2347 -104.2258 277° West 299 344 13,000 -1,452 Descending Denver Center
Wed 11:44:47 AM 40.2219 -104.3247 260° West 289 333 11,700 -1,355 Descending Denver Center
Wed 11:45:49 AM 40.1892 -104.4278 247° West 287 330 10,200 -1,306 Descending Denver Center
Wed 11:46:51 AM 40.1569 -104.5192 245° Southwest 279 321 9,000 -889 Descending Denver Center
Wed 11:48:04 AM 40.0833 -104.6000 220° Southwest 291 335 8,200 -632 Descending Denver TRACON
Wed 11:49:04 AM 40.0167 -104.6500 210° Southwest 237 273 7,600 -560 Descending Denver TRACON
Wed 11:49:19 AM 40.0147 -104.6564 248° West 257 296 7,500 -857 Descending Denver Center
Wed 11:50:21 AM 39.9586 -104.6861 202° Southwest 172 198 6,500 -968 Descending Denver Center

Login

Don't have an account? Register now (free) for customized features, flight alerts, and more!